sensor_id;sensor_type;location;lat;lon;timestamp;pressure;altitude;pressure_sealevel;temperature;humidity
65614;BME280;52283;49.292;10.572;2023-06-19T00:00:41;96084.91;;;22.19;42.99
65614;BME280;52283;49.292;10.572;2023-06-19T00:03:07;96081.63;;;22.23;43.49
65614;BME280;52283;49.292;10.572;2023-06-19T00:05:34;96080.28;;;22.24;43.41
65614;BME280;52283;49.292;10.572;2023-06-19T00:08:00;96080.00;;;22.03;43.30
65614;BME280;52283;49.292;10.572;2023-06-19T00:10:28;96081.19;;;22.00;43.56
65614;BME280;52283;49.292;10.572;2023-06-19T00:12:55;96089.84;;;21.92;43.68
65614;BME280;52283;49.292;10.572;2023-06-19T00:15:23;96078.06;;;21.78;43.75
65614;BME280;52283;49.292;10.572;2023-06-19T00:17:49;96074.03;;;21.81;43.45
65614;BME280;52283;49.292;10.572;2023-06-19T00:20:16;96075.97;;;21.79;43.56
65614;BME280;52283;49.292;10.572;2023-06-19T00:22:43;96075.81;;;21.77;44.38
65614;BME280;52283;49.292;10.572;2023-06-19T00:25:09;96077.44;;;21.70;43.91
65614;BME280;52283;49.292;10.572;2023-06-19T00:27:36;96076.59;;;21.60;44.28
65614;BME280;52283;49.292;10.572;2023-06-19T00:30:04;96083.56;;;21.49;44.59
65614;BME280;52283;49.292;10.572;2023-06-19T00:32:32;96069.94;;;21.48;44.40
65614;BME280;52283;49.292;10.572;2023-06-19T00:35:11;96077.72;;;21.30;44.45
65614;BME280;52283;49.292;10.572;2023-06-19T00:37:38;96075.28;;;21.26;44.59
65614;BME280;52283;49.292;10.572;2023-06-19T00:40:06;96068.59;;;21.49;44.16
65614;BME280;52283;49.292;10.572;2023-06-19T00:42:33;96073.97;;;21.45;44.53
65614;BME280;52283;49.292;10.572;2023-06-19T00:45:00;96081.63;;;21.52;44.65
65614;BME280;52283;49.292;10.572;2023-06-19T00:47:26;96079.38;;;21.50;45.13
65614;BME280;52283;49.292;10.572;2023-06-19T00:49:54;96078.78;;;21.35;44.75
65614;BME280;52283;49.292;10.572;2023-06-19T00:52:20;96076.22;;;21.29;44.83
65614;BME280;52283;49.292;10.572;2023-06-19T00:54:47;96077.00;;;21.22;44.88
65614;BME280;52283;49.292;10.572;2023-06-19T00:57:13;96077.44;;;21.18;45.53
65614;BME280;52283;49.292;10.572;2023-06-19T00:59:40;96084.69;;;20.94;45.91
65614;BME280;52283;49.292;10.572;2023-06-19T01:02:06;96083.41;;;21.30;45.93
65614;BME280;52283;49.292;10.572;2023-06-19T01:04:33;96090.56;;;21.14;45.80
65614;BME280;52283;49.292;10.572;2023-06-19T01:07:05;96093.47;;;21.23;46.19
65614;BME280;52283;49.292;10.572;2023-06-19T01:09:39;96094.00;;;21.29;46.16
65614;BME280;52283;49.292;10.572;2023-06-19T01:12:10;96090.09;;;21.00;46.52
65614;BME280;52283;49.292;10.572;2023-06-19T01:14:42;96092.22;;;21.17;46.56
65614;BME280;52283;49.292;10.572;2023-06-19T01:17:12;96091.88;;;21.13;46.67
65614;BME280;52283;49.292;10.572;2023-06-19T01:19:39;96090.53;;;20.96;47.02
65614;BME280;52283;49.292;10.572;2023-06-19T01:22:07;96089.72;;;21.21;46.84
65614;BME280;52283;49.292;10.572;2023-06-19T01:24:33;96093.69;;;21.00;47.39
65614;BME280;52283;49.292;10.572;2023-06-19T01:27:00;96087.97;;;21.08;47.58
65614;BME280;52283;49.292;10.572;2023-06-19T01:29:27;96094.31;;;21.16;47.04
65614;BME280;52283;49.292;10.572;2023-06-19T01:31:57;96092.94;;;21.00;47.50
65614;BME280;52283;49.292;10.572;2023-06-19T01:34:27;96094.38;;;20.91;47.93
65614;BME280;52283;49.292;10.572;2023-06-19T01:36:55;96093.19;;;20.94;47.74
65614;BME280;52283;49.292;10.572;2023-06-19T01:39:24;96092.78;;;20.98;47.96
65614;BME280;52283;49.292;10.572;2023-06-19T01:41:52;96088.53;;;20.89;48.19
65614;BME280;52283;49.292;10.572;2023-06-19T01:44:20;96092.88;;;20.90;48.47
65614;BME280;52283;49.292;10.572;2023-06-19T01:46:47;96101.34;;;20.73;48.84
65614;BME280;52283;49.292;10.572;2023-06-19T01:49:14;96106.03;;;20.78;49.21
65614;BME280;52283;49.292;10.572;2023-06-19T01:51:41;96101.47;;;20.58;49.70
65614;BME280;52283;49.292;10.572;2023-06-19T01:54:07;96093.81;;;20.68;49.80
65614;BME280;52283;49.292;10.572;2023-06-19T01:56:35;96089.66;;;20.69;49.76
65614;BME280;52283;49.292;10.572;2023-06-19T01:59:02;96101.19;;;20.71;49.57
65614;BME280;52283;49.292;10.572;2023-06-19T02:01:29;96094.91;;;20.73;49.79
65614;BME280;52283;49.292;10.572;2023-06-19T02:03:55;96090.47;;;20.62;50.08
65614;BME280;52283;49.292;10.572;2023-06-19T02:06:21;96089.16;;;20.63;50.40
65614;BME280;52283;49.292;10.572;2023-06-19T02:08:48;96095.56;;;20.63;50.28
65614;BME280;52283;49.292;10.572;2023-06-19T02:11:15;96100.22;;;20.93;49.61
65614;BME280;52283;49.292;10.572;2023-06-19T02:13:43;96098.47;;;20.98;49.30
65614;BME280;52283;49.292;10.572;2023-06-19T02:16:09;96099.06;;;21.14;48.75
65614;BME280;52283;49.292;10.572;2023-06-19T02:18:36;96092.13;;;21.07;49.07
65614;BME280;52283;49.292;10.572;2023-06-19T02:21:02;96089.47;;;21.09;49.05
65614;BME280;52283;49.292;10.572;2023-06-19T02:23:29;96099.72;;;21.22;48.71
65614;BME280;52283;49.292;10.572;2023-06-19T02:25:55;96098.94;;;21.29;48.65
65614;BME280;52283;49.292;10.572;2023-06-19T02:28:21;96100.88;;;21.26;48.69
65614;BME280;52283;49.292;10.572;2023-06-19T02:30:49;96088.88;;;21.11;49.04
65614;BME280;52283;49.292;10.572;2023-06-19T02:33:16;96093.72;;;21.18;49.00
65614;BME280;52283;49.292;10.572;2023-06-19T02:35:42;96099.25;;;21.16;49.03
65614;BME280;52283;49.292;10.572;2023-06-19T02:38:09;96092.19;;;20.99;49.34
65614;BME280;52283;49.292;10.572;2023-06-19T02:40:36;96093.53;;;20.98;49.57
65614;BME280;52283;49.292;10.572;2023-06-19T02:43:03;96097.66;;;21.05;49.40
65614;BME280;52283;49.292;10.572;2023-06-19T02:45:29;96097.50;;;21.03;49.63
65614;BME280;52283;49.292;10.572;2023-06-19T02:47:57;96103.13;;;20.86;49.99
65614;BME280;52283;49.292;10.572;2023-06-19T02:50:23;96104.09;;;21.06;49.78
65614;BME280;52283;49.292;10.572;2023-06-19T02:52:50;96100.06;;;20.91;49.83
65614;BME280;52283;49.292;10.572;2023-06-19T02:55:16;96110.41;;;20.96;50.11
65614;BME280;52283;49.292;10.572;2023-06-19T02:57:43;96118.94;;;20.96;50.31
65614;BME280;52283;49.292;10.572;2023-06-19T03:00:11;96112.75;;;20.90;50.39
65614;BME280;52283;49.292;10.572;2023-06-19T03:02:37;96113.91;;;20.87;50.58
65614;BME280;52283;49.292;10.572;2023-06-19T03:05:09;96122.03;;;20.91;50.44
65614;BME280;52283;49.292;10.572;2023-06-19T03:07:35;96126.31;;;20.75;50.80
65614;BME280;52283;49.292;10.572;2023-06-19T03:10:02;96122.59;;;20.89;50.66
65614;BME280;52283;49.292;10.572;2023-06-19T03:12:28;96124.28;;;20.92;50.37
65614;BME280;52283;49.292;10.572;2023-06-19T03:14:55;96140.41;;;20.90;50.79
65614;BME280;52283;49.292;10.572;2023-06-19T03:17:21;96138.97;;;20.98;50.45
65614;BME280;52283;49.292;10.572;2023-06-19T03:19:48;96147.75;;;20.93;50.60
65614;BME280;52283;49.292;10.572;2023-06-19T03:22:17;96149.25;;;20.94;50.30
65614;BME280;52283;49.292;10.572;2023-06-19T03:24:43;96153.94;;;20.99;50.31
65614;BME280;52283;49.292;10.572;2023-06-19T03:27:10;96159.44;;;20.97;50.76
65614;BME280;52283;49.292;10.572;2023-06-19T03:29:36;96158.81;;;21.06;50.44
65614;BME280;52283;49.292;10.572;2023-06-19T03:32:03;96163.53;;;20.86;51.30
65614;BME280;52283;49.292;10.572;2023-06-19T03:34:30;96163.28;;;20.92;51.18
65614;BME280;52283;49.292;10.572;2023-06-19T03:36:56;96171.22;;;20.93;51.32
65614;BME280;52283;49.292;10.572;2023-06-19T03:39:24;96171.13;;;20.84;52.02
65614;BME280;52283;49.292;10.572;2023-06-19T03:41:51;96185.72;;;20.80;52.51
65614;BME280;52283;49.292;10.572;2023-06-19T03:44:17;96190.28;;;20.76;53.36
65614;BME280;52283;49.292;10.572;2023-06-19T03:46:44;96187.09;;;20.96;53.94
65614;BME280;52283;49.292;10.572;2023-06-19T03:49:11;96184.13;;;21.12;54.58
65614;BME280;52283;49.292;10.572;2023-06-19T03:51:38;96198.59;;;21.23;54.79
65614;BME280;52283;49.292;10.572;2023-06-19T03:54:05;96181.28;;;21.37;54.83
65614;BME280;52283;49.292;10.572;2023-06-19T03:56:32;96181.28;;;21.54;54.25
65614;BME280;52283;49.292;10.572;2023-06-19T03:58:59;96192.47;;;21.35;55.00
65614;BME280;52283;49.292;10.572;2023-06-19T04:01:25;96189.22;;;21.38;55.33
65614;BME280;52283;49.292;10.572;2023-06-19T04:03:52;96198.16;;;21.35;56.21
65614;BME280;52283;49.292;10.572;2023-06-19T04:06:18;96200.41;;;21.36;56.90
65614;BME280;52283;49.292;10.572;2023-06-19T04:08:45;96191.81;;;21.26;57.66
65614;BME280;52283;49.292;10.572;2023-06-19T04:11:11;96198.91;;;21.35;57.21
65614;BME280;52283;49.292;10.572;2023-06-19T04:13:40;96201.09;;;21.27;57.57
65614;BME280;52283;49.292;10.572;2023-06-19T04:16:07;96199.66;;;21.36;57.75
65614;BME280;52283;49.292;10.572;2023-06-19T04:18:33;96200.66;;;21.30;58.74
65614;BME280;52283;49.292;10.572;2023-06-19T04:21:00;96200.16;;;21.24;59.55
65614;BME280;52283;49.292;10.572;2023-06-19T04:23:26;96201.88;;;21.45;59.75
65614;BME280;52283;49.292;10.572;2023-06-19T04:25:53;96210.19;;;21.43;60.98
65614;BME280;52283;49.292;10.572;2023-06-19T04:28:19;96200.34;;;21.61;60.17
65614;BME280;52283;49.292;10.572;2023-06-19T04:30:47;96205.97;;;21.69;60.82
65614;BME280;52283;49.292;10.572;2023-06-19T04:33:14;96211.25;;;21.89;60.19
65614;BME280;52283;49.292;10.572;2023-06-19T04:35:40;96210.66;;;21.74;61.89
65614;BME280;52283;49.292;10.572;2023-06-19T04:38:07;96210.50;;;21.72;63.10
65614;BME280;52283;49.292;10.572;2023-06-19T04:40:34;96220.38;;;21.88;63.25
65614;BME280;52283;49.292;10.572;2023-06-19T04:43:01;96210.38;;;21.97;63.22
65614;BME280;52283;49.292;10.572;2023-06-19T04:45:30;96227.22;;;22.19;63.19
65614;BME280;52283;49.292;10.572;2023-06-19T04:47:58;96223.59;;;22.02;64.21
65614;BME280;52283;49.292;10.572;2023-06-19T04:50:28;96224.72;;;22.06;64.15
65614;BME280;52283;49.292;10.572;2023-06-19T04:52:54;96226.28;;;22.00;63.07
65614;BME280;52283;49.292;10.572;2023-06-19T04:55:21;96235.53;;;22.08;64.65
65614;BME280;52283;49.292;10.572;2023-06-19T04:57:50;96237.94;;;21.94;66.38
65614;BME280;52283;49.292;10.572;2023-06-19T05:00:17;96244.78;;;21.91;67.50
65614;BME280;52283;49.292;10.572;2023-06-19T05:02:45;96246.88;;;21.90;68.13
65614;BME280;52283;49.292;10.572;2023-06-19T05:05:13;96251.47;;;21.86;68.93
65614;BME280;52283;49.292;10.572;2023-06-19T05:07:40;96246.88;;;21.90;69.49
65614;BME280;52283;49.292;10.572;2023-06-19T05:10:08;96248.44;;;21.84;69.99
65614;BME280;52283;49.292;10.572;2023-06-19T05:12:35;96255.59;;;21.92;70.15
65614;BME280;52283;49.292;10.572;2023-06-19T05:15:02;96265.88;;;21.88;70.40
65614;BME280;52283;49.292;10.572;2023-06-19T05:17:29;96262.59;;;21.74;71.86
65614;BME280;52283;49.292;10.572;2023-06-19T05:19:55;96275.31;;;21.73;73.07
65614;BME280;52283;49.292;10.572;2023-06-19T05:22:23;96272.22;;;21.79;73.70
65614;BME280;52283;49.292;10.572;2023-06-19T05:24:51;96274.31;;;21.78;74.24
65614;BME280;52283;49.292;10.572;2023-06-19T05:27:18;96276.66;;;21.72;75.46
65614;BME280;52283;49.292;10.572;2023-06-19T05:29:44;96280.22;;;21.55;76.33
65614;BME280;52283;49.292;10.572;2023-06-19T05:32:11;96282.16;;;21.70;76.45
65614;BME280;52283;49.292;10.572;2023-06-19T05:34:37;96277.16;;;21.78;75.83
65614;BME280;52283;49.292;10.572;2023-06-19T05:37:04;96281.09;;;21.66;76.52
65614;BME280;52283;49.292;10.572;2023-06-19T05:39:32;96281.25;;;21.68;76.56
65614;BME280;52283;49.292;10.572;2023-06-19T05:41:58;96279.06;;;21.76;76.55
65614;BME280;52283;49.292;10.572;2023-06-19T05:44:25;96295.47;;;21.85;76.37
65614;BME280;52283;49.292;10.572;2023-06-19T05:46:51;96291.88;;;21.67;76.83
65614;BME280;52283;49.292;10.572;2023-06-19T05:49:18;96300.34;;;21.92;76.93
65614;BME280;52283;49.292;10.572;2023-06-19T05:51:44;96305.22;;;21.57;78.74
65614;BME280;52283;49.292;10.572;2023-06-19T05:54:10;96298.03;;;21.56;78.81
65614;BME280;52283;49.292;10.572;2023-06-19T05:56:38;96311.16;;;21.51;79.85
65614;BME280;52283;49.292;10.572;2023-06-19T05:59:05;96306.66;;;21.66;79.28
65614;BME280;52283;49.292;10.572;2023-06-19T06:01:31;96312.34;;;21.41;80.38
65614;BME280;52283;49.292;10.572;2023-06-19T06:04:04;96314.50;;;21.57;79.67
65614;BME280;52283;49.292;10.572;2023-06-19T06:06:30;96308.34;;;21.44;79.96
65614;BME280;52283;49.292;10.572;2023-06-19T06:08:57;96311.81;;;21.59;80.00
65614;BME280;52283;49.292;10.572;2023-06-19T06:11:23;96317.34;;;21.57;79.99
65614;BME280;52283;49.292;10.572;2023-06-19T06:13:51;96325.69;;;21.55;79.82
65614;BME280;52283;49.292;10.572;2023-06-19T06:16:18;96316.75;;;21.59;79.61
65614;BME280;52283;49.292;10.572;2023-06-19T06:18:44;96316.50;;;21.65;79.83
65614;BME280;52283;49.292;10.572;2023-06-19T06:21:11;96315.75;;;21.64;79.27
65614;BME280;52283;49.292;10.572;2023-06-19T06:23:38;96317.34;;;21.57;79.27
65614;BME280;52283;49.292;10.572;2023-06-19T06:26:04;96326.34;;;21.71;79.00
65614;BME280;52283;49.292;10.572;2023-06-19T06:28:31;96326.97;;;21.62;79.07
65614;BME280;52283;49.292;10.572;2023-06-19T06:30:59;96324.09;;;21.87;78.68
65614;BME280;52283;49.292;10.572;2023-06-19T06:33:26;96317.75;;;21.96;78.43
65614;BME280;52283;49.292;10.572;2023-06-19T06:35:55;96327.63;;;21.95;78.40
65614;BME280;52283;49.292;10.572;2023-06-19T06:38:21;96320.88;;;22.08;77.85
65614;BME280;52283;49.292;10.572;2023-06-19T06:40:48;96331.44;;;22.15;77.59
65614;BME280;52283;49.292;10.572;2023-06-19T06:43:15;96335.13;;;22.08;78.06
65614;BME280;52283;49.292;10.572;2023-06-19T06:45:42;96339.09;;;22.05;77.69
65614;BME280;52283;49.292;10.572;2023-06-19T06:48:09;96336.44;;;22.07;78.43
65614;BME280;52283;49.292;10.572;2023-06-19T06:50:36;96333.81;;;22.01;78.31
65614;BME280;52283;49.292;10.572;2023-06-19T06:53:02;96338.88;;;22.10;78.67
65614;BME280;52283;49.292;10.572;2023-06-19T06:55:29;96336.44;;;22.07;78.41
65614;BME280;52283;49.292;10.572;2023-06-19T06:57:55;96332.34;;;22.17;78.19
65614;BME280;52283;49.292;10.572;2023-06-19T07:00:22;96332.09;;;22.23;78.13
65614;BME280;52283;49.292;10.572;2023-06-19T07:02:48;96334.03;;;22.38;77.70
65614;BME280;52283;49.292;10.572;2023-06-19T07:05:17;96333.16;;;22.62;76.92
65614;BME280;52283;49.292;10.572;2023-06-19T07:07:44;96337.44;;;22.54;76.41
65614;BME280;52283;49.292;10.572;2023-06-19T07:10:10;96341.38;;;22.58;76.94
65614;BME280;52283;49.292;10.572;2023-06-19T07:12:44;96345.16;;;22.43;76.81
65614;BME280;52283;49.292;10.572;2023-06-19T07:15:10;96346.50;;;22.42;76.45
65614;BME280;52283;49.292;10.572;2023-06-19T07:17:37;96351.69;;;22.36;76.97
65614;BME280;52283;49.292;10.572;2023-06-19T07:20:05;96354.78;;;22.31;77.38
65614;BME280;52283;49.292;10.572;2023-06-19T07:22:33;96356.13;;;22.30;76.98
65614;BME280;52283;49.292;10.572;2023-06-19T07:24:59;96347.94;;;22.34;77.26
65614;BME280;52283;49.292;10.572;2023-06-19T07:27:26;96346.75;;;22.37;76.59
65614;BME280;52283;49.292;10.572;2023-06-19T07:29:54;96351.91;;;22.48;76.51
65614;BME280;52283;49.292;10.572;2023-06-19T07:32:20;96353.50;;;22.59;76.62
65614;BME280;52283;49.292;10.572;2023-06-19T07:34:47;96354.72;;;23.00;74.20
65614;BME280;52283;49.292;10.572;2023-06-19T07:37:13;96337.53;;;23.44;72.87
65614;BME280;52283;49.292;10.572;2023-06-19T07:39:44;96347.03;;;23.20;73.13
65614;BME280;52283;49.292;10.572;2023-06-19T07:42:10;96351.59;;;23.05;73.24
65614;BME280;52283;49.292;10.572;2023-06-19T07:44:37;96362.38;;;22.97;74.73
65614;BME280;52283;49.292;10.572;2023-06-19T07:47:04;96361.03;;;22.98;75.03
65614;BME280;52283;49.292;10.572;2023-06-19T07:49:30;96371.19;;;23.19;73.85
65614;BME280;52283;49.292;10.572;2023-06-19T07:51:56;96359.34;;;22.95;74.36
65614;BME280;52283;49.292;10.572;2023-06-19T07:54:23;96368.34;;;23.19;75.00
65614;BME280;52283;49.292;10.572;2023-06-19T07:56:51;96378.56;;;23.22;73.71
65614;BME280;52283;49.292;10.572;2023-06-19T07:59:18;96377.28;;;23.32;72.83
65614;BME280;52283;49.292;10.572;2023-06-19T08:01:44;96378.88;;;23.26;72.97
65614;BME280;52283;49.292;10.572;2023-06-19T08:04:11;96374.78;;;23.46;72.35
65614;BME280;52283;49.292;10.572;2023-06-19T08:06:37;96367.63;;;23.55;72.00
65614;BME280;52283;49.292;10.572;2023-06-19T08:09:04;96373.59;;;23.22;72.12
65614;BME280;52283;49.292;10.572;2023-06-19T08:11:30;96372.31;;;23.33;71.91
65614;BME280;52283;49.292;10.572;2023-06-19T08:13:58;96365.31;;;23.43;71.67
65614;BME280;52283;49.292;10.572;2023-06-19T08:16:25;96355.22;;;23.60;71.30
65614;BME280;52283;49.292;10.572;2023-06-19T08:19:16;96365.63;;;23.48;71.76
65614;BME280;52283;49.292;10.572;2023-06-19T08:21:43;96364.34;;;24.05;70.26
65614;BME280;52283;49.292;10.572;2023-06-19T08:24:10;96357.56;;;24.00;69.62
65614;BME280;52283;49.292;10.572;2023-06-19T08:26:37;96360.13;;;24.06;68.74
65614;BME280;52283;49.292;10.572;2023-06-19T08:29:05;96357.13;;;24.13;68.59
65614;BME280;52283;49.292;10.572;2023-06-19T08:31:32;96356.53;;;24.15;68.92
65614;BME280;52283;49.292;10.572;2023-06-19T08:34:01;96367.50;;;24.09;67.51
65614;BME280;52283;49.292;10.572;2023-06-19T08:36:33;96349.38;;;24.33;66.86
65614;BME280;52283;49.292;10.572;2023-06-19T08:39:04;96352.97;;;24.91;64.24
65614;BME280;52283;49.292;10.572;2023-06-19T08:41:33;96345.94;;;25.83;59.82
65614;BME280;52283;49.292;10.572;2023-06-19T08:44:00;96349.72;;;25.76;60.03
65614;BME280;52283;49.292;10.572;2023-06-19T08:46:29;96348.06;;;25.83;60.35
65614;BME280;52283;49.292;10.572;2023-06-19T08:48:56;96346.97;;;25.88;58.54
65614;BME280;52283;49.292;10.572;2023-06-19T08:51:22;96349.28;;;26.01;58.71
65614;BME280;52283;49.292;10.572;2023-06-19T08:53:54;96349.81;;;26.40;56.79
65614;BME280;52283;49.292;10.572;2023-06-19T08:56:21;96348.06;;;26.90;56.43
65614;BME280;52283;49.292;10.572;2023-06-19T08:58:48;96339.78;;;27.74;53.13
65614;BME280;52283;49.292;10.572;2023-06-19T09:01:17;96347.19;;;27.32;53.22
65614;BME280;52283;49.292;10.572;2023-06-19T09:03:46;96346.44;;;26.98;54.91
65614;BME280;52283;49.292;10.572;2023-06-19T09:06:17;96352.16;;;26.01;57.19
65614;BME280;52283;49.292;10.572;2023-06-19T09:08:43;96350.19;;;25.82;58.55
65614;BME280;52283;49.292;10.572;2023-06-19T09:11:11;96359.03;;;25.46;59.63
65614;BME280;52283;49.292;10.572;2023-06-19T09:13:37;96359.84;;;25.27;61.06
65614;BME280;52283;49.292;10.572;2023-06-19T09:16:05;96351.50;;;25.81;59.85
65614;BME280;52283;49.292;10.572;2023-06-19T09:18:42;96353.44;;;25.48;59.26
65614;BME280;52283;49.292;10.572;2023-06-19T09:21:19;96352.88;;;26.33;57.04
65614;BME280;52283;49.292;10.572;2023-06-19T09:23:47;96350.09;;;25.92;57.06
65614;BME280;52283;49.292;10.572;2023-06-19T09:26:15;96342.28;;;26.14;55.32
65614;BME280;52283;49.292;10.572;2023-06-19T09:28:43;96348.97;;;26.28;54.43
65614;BME280;52283;49.292;10.572;2023-06-19T09:31:10;96345.09;;;26.66;53.70
65614;BME280;52283;49.292;10.572;2023-06-19T09:33:38;96329.75;;;27.98;50.27
65614;BME280;52283;49.292;10.572;2023-06-19T09:36:05;96348.50;;;26.74;52.95
65614;BME280;52283;49.292;10.572;2023-06-19T09:38:35;96345.13;;;26.45;53.55
65614;BME280;52283;49.292;10.572;2023-06-19T09:41:05;96342.25;;;26.24;54.26
65614;BME280;52283;49.292;10.572;2023-06-19T09:43:33;96338.41;;;26.85;53.40
65614;BME280;52283;49.292;10.572;2023-06-19T09:46:02;96334.53;;;27.02;53.22
65614;BME280;52283;49.292;10.572;2023-06-19T09:48:30;96329.78;;;27.07;52.54
65614;BME280;52283;49.292;10.572;2023-06-19T09:51:02;96333.22;;;27.38;51.86
65614;BME280;52283;49.292;10.572;2023-06-19T09:53:30;96340.84;;;27.57;52.08
65614;BME280;52283;49.292;10.572;2023-06-19T09:55:58;96326.00;;;28.07;48.56
65614;BME280;52283;49.292;10.572;2023-06-19T09:58:25;96325.84;;;28.29;48.54
65614;BME280;52283;49.292;10.572;2023-06-19T10:00:53;96323.50;;;28.99;47.81
65614;BME280;52283;49.292;10.572;2023-06-19T10:03:21;96326.25;;;28.00;48.91
65614;BME280;52283;49.292;10.572;2023-06-19T10:05:57;96325.38;;;27.50;49.97
65614;BME280;52283;49.292;10.572;2023-06-19T10:08:29;96328.91;;;27.84;49.68
65614;BME280;52283;49.292;10.572;2023-06-19T10:10:56;96315.50;;;28.35;47.37
65614;BME280;52283;49.292;10.572;2023-06-19T10:13:31;96312.56;;;28.47;47.03
65614;BME280;52283;49.292;10.572;2023-06-19T10:15:58;96314.00;;;28.11;48.26
65614;BME280;52283;49.292;10.572;2023-06-19T10:18:24;96309.97;;;28.76;47.18
65614;BME280;52283;49.292;10.572;2023-06-19T10:20:53;96306.72;;;29.47;45.06
65614;BME280;52283;49.292;10.572;2023-06-19T10:23:21;96313.69;;;28.79;45.78
65614;BME280;52283;49.292;10.572;2023-06-19T10:25:55;96323.88;;;28.08;47.43
65614;BME280;52283;49.292;10.572;2023-06-19T10:28:25;96310.41;;;27.99;47.02
65614;BME280;52283;49.292;10.572;2023-06-19T10:30:52;96315.16;;;27.59;49.11
65614;BME280;52283;49.292;10.572;2023-06-19T10:33:19;96312.19;;;27.92;48.23
65614;BME280;52283;49.292;10.572;2023-06-19T10:35:46;96297.88;;;28.66;46.95
65614;BME280;52283;49.292;10.572;2023-06-19T10:38:14;96304.41;;;28.06;48.02
65614;BME280;52283;49.292;10.572;2023-06-19T10:40:41;96297.84;;;29.03;46.16
65614;BME280;52283;49.292;10.572;2023-06-19T10:43:07;96309.81;;;28.86;45.91
65614;BME280;52283;49.292;10.572;2023-06-19T10:45:35;96301.94;;;28.87;45.25
65614;BME280;52283;49.292;10.572;2023-06-19T10:48:03;96285.28;;;28.11;47.33
65614;BME280;52283;49.292;10.572;2023-06-19T10:50:30;96290.97;;;29.36;45.14
65614;BME280;52283;49.292;10.572;2023-06-19T10:53:00;96275.47;;;29.55;43.82
65614;BME280;52283;49.292;10.572;2023-06-19T10:55:26;96298.06;;;27.61;48.75
65614;BME280;52283;49.292;10.572;2023-06-19T10:57:53;96284.66;;;28.61;46.91
65614;BME280;52283;49.292;10.572;2023-06-19T11:00:23;96287.34;;;28.71;47.06
65614;BME280;52283;49.292;10.572;2023-06-19T11:02:52;96286.53;;;28.82;45.76
65614;BME280;52283;49.292;10.572;2023-06-19T11:05:20;96277.72;;;29.70;44.33
65614;BME280;52283;49.292;10.572;2023-06-19T11:07:50;96275.16;;;28.33;46.68
65614;BME280;52283;49.292;10.572;2023-06-19T11:10:19;96295.66;;;28.04;47.94
65614;BME280;52283;49.292;10.572;2023-06-19T11:12:47;96286.78;;;29.11;45.55
65614;BME280;52283;49.292;10.572;2023-06-19T11:15:14;96277.28;;;29.09;44.40
65614;BME280;52283;49.292;10.572;2023-06-19T11:17:40;96274.78;;;28.52;46.38
65614;BME280;52283;49.292;10.572;2023-06-19T11:20:11;96272.66;;;28.28;47.20
65614;BME280;52283;49.292;10.572;2023-06-19T11:22:38;96285.59;;;27.80;49.27
65614;BME280;52283;49.292;10.572;2023-06-19T11:25:07;96287.69;;;27.56;50.36
65614;BME280;52283;49.292;10.572;2023-06-19T11:27:37;96297.66;;;27.08;51.72
65614;BME280;52283;49.292;10.572;2023-06-19T11:30:05;96288.78;;;28.09;49.83
65614;BME280;52283;49.292;10.572;2023-06-19T11:32:34;96278.00;;;28.96;47.40
65614;BME280;52283;49.292;10.572;2023-06-19T11:35:07;96277.41;;;29.11;47.32
65614;BME280;52283;49.292;10.572;2023-06-19T11:37:35;96279.63;;;28.36;48.37
65614;BME280;52283;49.292;10.572;2023-06-19T11:40:02;96290.38;;;28.36;48.50
65614;BME280;52283;49.292;10.572;2023-06-19T11:42:44;96297.03;;;27.45;51.62
65614;BME280;52283;49.292;10.572;2023-06-19T11:45:11;96286.28;;;28.52;49.97
65614;BME280;52283;49.292;10.572;2023-06-19T11:47:37;96291.66;;;27.27;52.44
65614;BME280;52283;49.292;10.572;2023-06-19T11:50:04;96286.53;;;28.08;51.71
65614;BME280;52283;49.292;10.572;2023-06-19T11:52:31;96291.78;;;28.11;51.20
65614;BME280;52283;49.292;10.572;2023-06-19T11:54:59;96274.44;;;29.62;47.41
65614;BME280;52283;49.292;10.572;2023-06-19T11:57:26;96248.91;;;29.56;45.34
65614;BME280;52283;49.292;10.572;2023-06-19T11:59:53;96270.59;;;29.18;47.05
65614;BME280;52283;49.292;10.572;2023-06-19T12:02:20;96274.72;;;29.95;44.94
65614;BME280;52283;49.292;10.572;2023-06-19T12:04:47;96253.47;;;30.30;43.35
65614;BME280;52283;49.292;10.572;2023-06-19T12:07:13;96262.03;;;30.00;44.64
65614;BME280;52283;49.292;10.572;2023-06-19T12:09:40;96266.66;;;28.86;46.20
65614;BME280;52283;49.292;10.572;2023-06-19T12:12:10;96263.00;;;29.64;45.39
65614;BME280;52283;49.292;10.572;2023-06-19T12:14:36;96260.44;;;28.15;48.86
65614;BME280;52283;49.292;10.572;2023-06-19T12:17:04;96260.81;;;28.72;48.40
65614;BME280;52283;49.292;10.572;2023-06-19T12:19:31;96258.28;;;28.28;48.46
65614;BME280;52283;49.292;10.572;2023-06-19T12:21:57;96264.00;;;28.65;48.94
65614;BME280;52283;49.292;10.572;2023-06-19T12:24:24;96258.88;;;28.63;48.61
65614;BME280;52283;49.292;10.572;2023-06-19T12:26:51;96258.22;;;28.76;48.18
65614;BME280;52283;49.292;10.572;2023-06-19T12:29:18;96260.69;;;29.21;47.35
65614;BME280;52283;49.292;10.572;2023-06-19T12:31:46;96255.16;;;28.86;46.09
65614;BME280;52283;49.292;10.572;2023-06-19T12:34:12;96243.78;;;28.88;44.93
65614;BME280;52283;49.292;10.572;2023-06-19T12:36:38;96241.47;;;29.65;44.38
65614;BME280;52283;49.292;10.572;2023-06-19T12:39:05;96239.09;;;30.89;42.07
65614;BME280;52283;49.292;10.572;2023-06-19T12:41:39;96242.34;;;30.38;42.46
65614;BME280;52283;49.292;10.572;2023-06-19T12:44:06;96245.81;;;29.93;42.02
65614;BME280;52283;49.292;10.572;2023-06-19T12:46:34;96245.09;;;30.07;43.15
65614;BME280;52283;49.292;10.572;2023-06-19T12:49:00;96239.16;;;30.32;41.76
65614;BME280;52283;49.292;10.572;2023-06-19T12:51:27;96244.16;;;31.36;39.89